18°C
Gosport, Hampshire, United Kingdom
Language:  English
Updated19/08/2018 01:25:00 
 

Nearby METAR Reports

 

EGHI - Southampton Wx Centre, United Kingdom
Distance from station: NW 15mi, 24km
Updated: 18-Aug-2018 22:50:00
NOT Current
Overcast
Overcast
 Wind from SW
Wind: SW 8 mph , 13 km/h
Temperature: 17°C
Dew Point: 13°C
Humidity: 77%
Barometer: 1022 hPa
Clouds: Overcast
Visibility: 6 miles , 10 km
Cloud details: Overcast 823 m
2018/08/18 21:50 EGHI 182150Z 23007KT 190V250 9999 OVC027 17/13 Q1022
EGHH - Bournemouth Airport, United Kingdom
Distance from station: W 30mi, 49km
Updated: 18-Aug-2018 23:20:00
NOT Current
Mostly cloudy
Mostly cloudy
 Wind from WSW
Wind: WSW 10 mph , 17 km/h
Temperature: 18°C
Dew Point: 15°C
Humidity: 83%
Barometer: 1021 hPa
Clouds: Mostly cloudy
Visibility: 6 miles , 10 km
Cloud details: Mostly cloudy 792 m
2018/08/18 22:20 EGHH 182220Z 24009KT 190V300 9999 BKN026 18/15 Q1021
EGVP - Middle Wallop Airfield, United Kingdom
Distance from station: NW 31mi, 49km
Updated: 19-Aug-2018 00:50:00
Mostly cloudy
Mostly cloudy
 Wind from SSW
Wind: SSW 9 mph , 15 km/h
Temperature: 17°C
Dew Point: 15°C
Humidity: 88%
Barometer: 1021 hPa
Clouds: Mostly cloudy
Visibility: 6 miles , 10 km
Cloud details: Mostly cloudy 701 m
Mostly cloudy 823 m
2018/08/18 23:50 EGVP 182350Z AUTO 21008KT 9999 // BKN023/// BKN027/// 17/15 Q1021
 
EGVO - RAF Odiham, United Kingdom
Distance from station: NNE 32mi, 52km
Updated: 19-Aug-2018 00:50:00
Overcast
Overcast
 Wind from SSW
Wind: SSW 12 mph , 19 km/h
Temperature: 17°C
Dew Point: 15°C
Humidity: 88%
Barometer: 1021 hPa
Clouds: Overcast
Visibility: 6 miles , 10 km
Cloud details: Overcast 640 m
2018/08/18 23:50 EGVO 182350Z AUTO 21010KT 9999 OVC021/// 17/15 Q1021
EGKA - Shoreham Airport, United Kingdom
Distance from station: E 37mi, 59km
Updated: 18-Aug-2018 18:20:00
NOT Current
Mostly cloudy
Mostly cloudy
 Wind from WSW
Wind: WSW 17 mph , 28 km/h
Temperature: 19°C
Dew Point: 15°C
Humidity: 78%
Barometer: 1021 hPa
Clouds: Mostly cloudy
Visibility: 6 miles , 10 km
Cloud details: Few Clouds 396 m
Mostly cloudy 762 m
2018/08/18 17:20 EGKA 181720Z 24015KT 9999 FEW013 BKN025 19/15 Q1021
EGDM - Boscombe Down, United Kingdom
Distance from station: NW 38mi, 61km
Updated: 19-Aug-2018 00:50:00
Overcast
Overcast
 Wind from SSW
Wind: SSW 10 mph , 17 km/h
Temperature: 17°C
Dew Point: 15°C
Humidity: 88%
Barometer: 1021 hPa
Clouds: Overcast
Visibility: 6 miles , 10 km
Cloud details: Overcast 610 m
2018/08/18 23:50 EGDM 182350Z AUTO 20009KT 9999 OVC020/// 17/15 Q1021
 
EGLF - Farnborough, United Kingdom
Distance from station: NNE 38mi, 61km
Updated: 18-Aug-2018 19:50:00
NOT Current
Mostly cloudy
Mostly cloudy
 Wind from WSW
Wind: WSW 10 mph , 17 km/h
Temperature: 20°C
Dew Point: 15°C
Humidity: 73%
Barometer: 1021 hPa
Clouds: Mostly cloudy
Visibility: 6 miles , 10 km
Cloud details: Partly cloudy 762 m
Mostly cloudy 1006 m
2018/08/18 18:50 EGLF 181850Z 24009KT 9999 SCT025 BKN033 20/15 Q1021
EGKK - Gatwick Airport, United Kingdom
Distance from station: ENE 49mi, 78km
Updated: 19-Aug-2018 01:20:00
Mostly cloudy
Mostly cloudy
 Wind from SSW
Wind: SSW 5 mph , 7 km/h
Temperature: 18°C
Dew Point: 15°C
Humidity: 83%
Barometer: 1021 hPa
Clouds: Mostly cloudy
Visibility: 6 miles , 10 km
Cloud details: Mostly cloudy 701 m
2018/08/19 00:20 EGKK 190020Z 21004KT 170V240 9999 BKN023 18/15 Q1021
EGLL - Heathrow Airport, United Kingdom
Distance from station: NNE 57mi, 91km
Updated: 19-Aug-2018 01:20:00
Overcast
Overcast
 Wind from SW
Wind: SW 9 mph , 15 km/h
Temperature: 18°C
Dew Point: 15°C
Humidity: 83%
Barometer: 1021 hPa
Clouds: Overcast
Visibility: 6 miles , 10 km
Cloud details: Overcast 732 m
2018/08/19 00:20 EGLL 190020Z AUTO 22008KT 9999 OVC024 18/15 Q1021 NOSIG
 
EGUB - RAF Benson, United Kingdom
Distance from station: N 58mi, 93km
Updated: 19-Aug-2018 00:50:00
Mostly cloudy
Mostly cloudy
 Wind from S
Wind: S 8 mph , 13 km/h
Temperature: 18°C
Dew Point: 15°C
Humidity: 83%
Barometer: 1020 hPa
Clouds: Mostly cloudy
Visibility: 6 miles , 10 km
Cloud details: Few Clouds 366 m
Mostly cloudy 701 m
2018/08/18 23:50 EGUB 182350Z AUTO 19007KT 9999 // FEW012/// BKN023/// 18/15 Q1020
EGWU - RAF Northolt, United Kingdom
Distance from station: NNE 62mi, 99km
Updated: 19-Aug-2018 00:50:00
Mostly cloudy
Mostly cloudy
 Wind from SW
Wind: SW 7 mph , 11 km/h
Temperature: 18°C
Dew Point: 15°C
Humidity: 83%
Barometer: 1020 hPa
Clouds: Mostly cloudy
Visibility: 6 miles , 10 km
Cloud details: Mostly cloudy 671 m
2018/08/18 23:50 EGWU 182350Z AUTO 22006KT 9999 // BKN022/// 18/15 Q1020
EGKB - Biggin Hill Airport, United Kingdom
Distance from station: NE 62mi, 100km
Updated: 18-Aug-2018 21:50:00
NOT Current
Mostly cloudy
Mostly cloudy
 Wind from SSW
Wind: SSW 10 mph , 17 km/h
Temperature: 18°C
Dew Point: 15°C
Humidity: 83%
Barometer: 1022 hPa
Clouds: Mostly cloudy
Visibility: 6 miles , 10 km
Cloud details: Mostly cloudy 732 m
2018/08/18 20:50 EGKB 182050Z 21009KT 9999 BKN024 18/15 Q1022
 
EGDY - RNAS Yeovilton, United Kingdom
Distance from station: WNW 66mi, 107km
Updated: 19-Aug-2018 00:50:00
Clear
Clear
 Wind from S
Wind: S 9 mph , 15 km/h
Temperature: 16°C
Dew Point: 15°C
Humidity: 94%
Barometer: 1020 hPa
Clouds: Clear
Visibility: 6 miles , 10 km
2018/08/18 23:50 EGDY 182350Z AUTO 19008KT 9999 NCD 16/15 Q1020
EGUO - Colerne Airfield, United Kingdom
Distance from station: NW 67mi, 108km
Updated: 21-Mar-2018 08:50:00
NOT Current
Clear
Clear
 Wind from W
Wind: W 6 mph , 9 km/h
Temperature: 5°C
Wind Chill: 3°C
Dew Point: 1°C
Humidity: 76%
Barometer: 1032 hPa
Clouds: Clear
Visibility: 6 miles , 10 km
2018/03/21 08:50 EGUO 210850Z 27005KT 9999 NCD 05/01 Q1032 BLU NOSIG
EGVA - RAF Fairford, United Kingdom
Distance from station: NNW 67mi, 108km
Updated: 19-Aug-2018 01:21:00
Overcast
Overcast
 Wind from SSW
Wind: SSW 10 mph , 17 km/h
Temperature: 17°C
Dew Point: 17°C
Humidity: 100%
Barometer: 1019.3 hPa
Clouds: Overcast
Visibility: 6 miles , 10 km
Cloud details: Overcast 183 m
2018/08/19 00:21 EGVA 190021Z AUTO 21009KT 9999 OVC006 17/17 A3010 RMK AO2 SLP194 $
 
EGVN - RAF Brize Norton, United Kingdom
Distance from station: NNW 71mi, 114km
Updated: 19-Aug-2018 00:50:00
Light drizzle, Mostly cloudy
Light drizzle, Mostly cloudy
 Wind from SSW
Wind: SSW 7 mph , 11 km/h
Temperature: 17°C
Dew Point: 16°C
Humidity: 94%
Barometer: 1020 hPa
Summary: Light Drizzle
Clouds: Mostly cloudy
Visibility: 2 miles , 4 km
Cloud details: Mostly cloudy 183 m
2018/08/18 23:50 EGVN 182350Z 21006KT 4000 -DZ BKN006 17/16 Q1020
EGLC - London City Airport, United Kingdom
Distance from station: NE 71mi, 115km
Updated: 19-Aug-2018 01:20:00
Overcast
Overcast
 Wind from SSW
Wind: SSW 7 mph , 11 km/h
Temperature: 19°C
Dew Point: 15°C
Humidity: 78%
Barometer: 1020 hPa
Clouds: Overcast
Visibility: 6 miles , 10 km
Cloud details: Overcast 701 m
2018/08/19 00:20 EGLC 190020Z AUTO 21006KT 180V240 9999 OVC023 19/15 Q1020
EGGD - Bristol Airport, United Kingdom
Distance from station: WNW 80mi, 128km
Updated: 19-Aug-2018 01:20:00
Mostly cloudy
Mostly cloudy
 Wind from SSW
Wind: SSW 10 mph , 17 km/h
Temperature: 16°C
Dew Point: 16°C
Humidity: 100%
Barometer: 1020 hPa
Clouds: Mostly cloudy
Visibility: 6 miles , 10 km
Cloud details: Mostly cloudy 152 m
2018/08/19 00:20 EGGD 190020Z AUTO 21009KT 9999 BKN005 16/16 Q1020
 
LFRC - Cherbourg-Maupertus Airport, France
Distance from station: S 81mi, 130km
Updated: 19-Aug-2018 01:00:00
Clear
Clear
 Wind from WSW
Wind: WSW 8 mph , 13 km/h
Temperature: 14°C
Dew Point: 13°C
Humidity: 94%
Barometer: 1023 hPa
Summary: Clear
Visibility: greater than 7 miles , 10 km
2018/08/19 00:00 LFRC 190000Z AUTO 25007KT CAVOK 14/13 Q1023
EGGW - Luton Airport, United Kingdom
Distance from station: NNE 82mi, 132km
Updated: 19-Aug-2018 01:20:00
Clear
Clear
 Wind from SSW
Wind: SSW 9 mph , 15 km/h
Temperature: 17°C
Dew Point: 15°C
Humidity: 88%
Barometer: 1020 hPa
Clouds: Clear
Visibility: 6 miles , 10 km
2018/08/19 00:20 EGGW 190020Z AUTO 20008KT 9999 NCD 17/15 Q1020